createdAt,value
2018-07-14T00:00:29.298Z,22.88
2018-07-14T00:03:00.278Z,22.84
2018-07-14T00:05:31.352Z,22.79
2018-07-14T00:08:01.850Z,22.74
2018-07-14T00:10:33.406Z,22.71
2018-07-14T00:13:03.705Z,22.69
2018-07-14T00:15:35.738Z,22.64
2018-07-14T00:18:07.450Z,22.61
2018-07-14T00:20:38.160Z,22.59
2018-07-14T00:23:08.588Z,22.57
2018-07-14T00:25:46.561Z,22.54
2018-07-14T00:28:17.908Z,22.51
2018-07-14T00:30:49.690Z,22.51
2018-07-14T00:33:19.357Z,22.48
2018-07-14T00:35:50.130Z,22.45
2018-07-14T00:38:19.219Z,22.45
2018-07-14T00:40:53.154Z,22.45
2018-07-14T00:43:29.496Z,22.43
2018-07-14T00:46:02.086Z,22.41
2018-07-14T00:48:35.008Z,22.39
2018-07-14T00:51:09.616Z,22.37
2018-07-14T00:53:41.594Z,22.34
2018-07-14T00:56:13.124Z,22.33
2018-07-14T00:58:42.368Z,22.31
2018-07-14T01:01:12.257Z,22.26
2018-07-14T01:03:42.073Z,22.19
2018-07-14T01:06:11.397Z,22.11
2018-07-14T01:08:42.441Z,22.04
2018-07-14T01:11:11.837Z,21.99
2018-07-14T01:13:41.556Z,21.93
2018-07-14T01:16:13.591Z,21.91
2018-07-14T01:18:42.952Z,21.88
2018-07-14T01:21:12.607Z,21.88
2018-07-14T01:23:41.979Z,21.86
2018-07-14T01:26:11.868Z,21.86
2018-07-14T01:28:41.259Z,21.86
2018-07-14T01:31:10.545Z,21.84
2018-07-14T01:33:40.206Z,21.83
2018-07-14T01:36:10.184Z,21.82
2018-07-14T01:38:39.774Z,21.80
2018-07-14T01:41:10.486Z,21.78
2018-07-14T01:43:39.884Z,21.75
2018-07-14T01:46:11.447Z,21.73
2018-07-14T01:48:40.911Z,21.71
2018-07-14T01:51:11.634Z,21.68
2018-07-14T01:53:41.101Z,21.64
2018-07-14T01:56:11.135Z,21.63
2018-07-14T01:58:40.620Z,21.61
2018-07-14T02:01:11.109Z,21.60
2018-07-14T02:03:41.111Z,21.57
2018-07-14T02:06:10.416Z,21.55
2018-07-14T02:08:39.782Z,21.54
2018-07-14T02:11:10.039Z,21.53
2018-07-14T02:13:39.560Z,21.51
2018-07-14T02:16:09.213Z,21.47
2018-07-14T02:18:38.419Z,21.44
2018-07-14T02:21:09.591Z,21.40
2018-07-14T02:23:38.940Z,21.35
2018-07-14T02:26:09.241Z,21.31
2018-07-14T02:28:39.197Z,21.26
2018-07-14T02:31:08.717Z,21.20
2018-07-14T02:33:39.632Z,21.16
2018-07-14T02:36:10.416Z,21.12
2018-07-14T02:38:40.164Z,21.06
2018-07-14T02:41:10.182Z,21.02
2018-07-14T02:43:40.008Z,20.98
2018-07-14T02:46:10.165Z,20.93
2018-07-14T02:48:40.037Z,20.89
2018-07-14T02:51:10.480Z,20.84
2018-07-14T02:53:40.600Z,20.80
2018-07-14T02:56:09.730Z,20.78
2018-07-14T02:58:40.572Z,20.74
2018-07-14T03:01:13.198Z,20.71
2018-07-14T03:03:44.198Z,20.67
2018-07-14T03:06:17.722Z,20.64
2018-07-14T03:08:46.922Z,20.61
2018-07-14T03:11:16.726Z,20.60
2018-07-14T03:13:47.097Z,20.57
2018-07-14T03:16:16.709Z,20.56
2018-07-14T03:18:46.244Z,20.55
2018-07-14T03:21:15.813Z,20.52
2018-07-14T03:23:48.208Z,20.49
2018-07-14T03:26:17.546Z,20.50
2018-07-14T03:28:47.454Z,20.50
2018-07-14T03:31:16.791Z,20.49
2018-07-14T03:33:46.292Z,20.49
2018-07-14T03:36:16.253Z,20.48
2018-07-14T03:38:46.562Z,20.46
2018-07-14T03:41:16.284Z,20.46
2018-07-14T03:43:45.731Z,20.45
2018-07-14T03:46:15.407Z,20.46
2018-07-14T03:48:47.044Z,20.47
2018-07-14T03:51:16.483Z,20.46
2018-07-14T03:53:46.074Z,20.47
2018-07-14T03:56:16.435Z,20.47
2018-07-14T03:58:46.078Z,20.48
2018-07-14T04:01:15.720Z,20.48
2018-07-14T04:03:45.800Z,20.48
2018-07-14T04:06:15.351Z,20.45
2018-07-14T04:08:45.116Z,20.43
2018-07-14T04:11:15.147Z,20.42
2018-07-14T04:13:44.778Z,20.45
2018-07-14T04:16:14.791Z,20.51
2018-07-14T04:18:44.924Z,20.59
2018-07-14T04:21:15.339Z,20.74
2018-07-14T04:23:46.607Z,20.92
2018-07-14T04:26:16.383Z,21.11
2018-07-14T04:28:46.129Z,21.34
2018-07-14T04:31:18.796Z,21.57
2018-07-14T04:33:48.499Z,21.75
2018-07-14T04:36:20.637Z,21.91
2018-07-14T04:38:50.110Z,22.07
2018-07-14T04:41:19.608Z,22.23
2018-07-14T04:43:52.084Z,22.40
2018-07-14T04:46:21.541Z,22.58
2018-07-14T04:48:50.952Z,22.74
2018-07-14T04:51:20.932Z,22.93
2018-07-14T04:53:50.274Z,23.15
2018-07-14T04:56:19.768Z,23.40
2018-07-14T04:58:50.953Z,23.68
2018-07-14T05:01:22.831Z,23.91
2018-07-14T05:03:53.996Z,24.13
2018-07-14T05:06:23.420Z,24.30
2018-07-14T05:08:53.384Z,24.48
2018-07-14T05:11:22.798Z,24.66
2018-07-14T05:13:52.527Z,24.88
2018-07-14T05:16:22.570Z,25.13
2018-07-14T05:18:52.611Z,25.40
2018-07-14T05:21:24.177Z,25.66
2018-07-14T05:23:55.695Z,25.99
2018-07-14T05:26:24.975Z,26.38
2018-07-14T05:28:55.535Z,26.75
2018-07-14T05:31:24.967Z,27.08
2018-07-14T05:33:54.443Z,27.28
2018-07-14T05:36:23.760Z,27.43
2018-07-14T05:38:58.140Z,27.56
2018-07-14T05:41:27.596Z,27.74
2018-07-14T05:43:57.052Z,27.91
2018-07-14T05:46:26.682Z,28.05
2018-07-14T05:48:56.152Z,28.26
2018-07-14T05:51:26.837Z,28.53
2018-07-14T05:53:55.842Z,28.77
2018-07-14T05:56:25.409Z,29.08
2018-07-14T05:58:55.082Z,29.43
2018-07-14T06:01:24.574Z,29.82
2018-07-14T06:03:54.714Z,30.25
2018-07-14T06:06:24.155Z,30.69
2018-07-14T06:08:53.830Z,31.12
2018-07-14T06:11:23.299Z,31.53
2018-07-14T06:13:55.070Z,31.97
2018-07-14T06:16:24.760Z,32.32
2018-07-14T06:18:54.464Z,32.60
2018-07-14T06:21:25.007Z,32.86
2018-07-14T06:23:54.583Z,33.18
2018-07-14T06:26:24.914Z,33.53
2018-07-14T06:28:54.571Z,33.77
2018-07-14T06:31:23.933Z,33.94
2018-07-14T06:33:53.436Z,34.06
2018-07-14T06:36:22.794Z,34.04
2018-07-14T06:38:52.621Z,34.03
2018-07-14T06:41:24.456Z,34.04
2018-07-14T06:43:55.367Z,34.23
2018-07-14T06:46:24.625Z,34.54
2018-07-14T06:48:53.926Z,34.98
2018-07-14T06:51:23.983Z,35.37
2018-07-14T06:53:53.559Z,35.71
2018-07-14T06:56:22.824Z,35.71
2018-07-14T06:58:55.350Z,35.64
2018-07-14T07:01:24.971Z,35.67
2018-07-14T07:03:54.371Z,35.90
2018-07-14T07:06:23.620Z,36.23
2018-07-14T07:08:53.611Z,36.65
2018-07-14T07:11:23.058Z,37.04
2018-07-14T07:13:52.554Z,37.37
2018-07-14T07:16:21.967Z,37.34
2018-07-14T07:18:51.590Z,37.27
2018-07-14T07:21:22.725Z,37.19
2018-07-14T07:23:52.993Z,37.19
2018-07-14T07:26:22.401Z,37.35
2018-07-14T07:28:52.286Z,37.56
2018-07-14T07:31:21.684Z,37.77
2018-07-14T07:33:51.842Z,37.99
2018-07-14T07:36:21.148Z,38.19
2018-07-14T07:38:50.519Z,38.37
2018-07-14T07:41:21.461Z,38.48
2018-07-14T07:43:50.959Z,38.57
2018-07-14T07:46:20.428Z,38.47
2018-07-14T07:48:49.941Z,38.29
2018-07-14T07:51:19.767Z,38.04
2018-07-14T07:53:53.351Z,37.79
2018-07-14T07:56:22.633Z,37.55
2018-07-14T07:58:52.220Z,37.30
2018-07-14T08:01:21.654Z,36.86
2018-07-14T08:03:52.810Z,36.44
2018-07-14T08:06:22.192Z,36.08
2018-07-14T08:08:51.509Z,35.82
2018-07-14T08:11:20.877Z,35.56
2018-07-14T08:13:50.473Z,35.21
2018-07-14T08:16:21.773Z,35.06
2018-07-14T08:18:51.150Z,35.03
2018-07-14T08:21:20.547Z,35.01
2018-07-14T08:23:49.907Z,34.92
2018-07-14T08:26:19.190Z,34.81
2018-07-14T08:28:48.996Z,34.74
2018-07-14T08:31:18.403Z,34.81
2018-07-14T08:33:47.621Z,34.84
2018-07-14T08:36:16.912Z,34.77
2018-07-14T08:38:46.642Z,34.73
2018-07-14T08:41:16.861Z,34.64
2018-07-14T08:43:46.706Z,34.68
2018-07-14T08:46:16.454Z,34.80
2018-07-14T08:48:46.171Z,34.93
2018-07-14T08:51:17.147Z,35.10
2018-07-14T08:53:46.508Z,35.39
2018-07-14T08:56:16.137Z,35.73
2018-07-14T08:58:47.215Z,35.91
2018-07-14T09:01:16.754Z,35.94
2018-07-14T09:03:46.092Z,35.87
2018-07-14T09:06:15.987Z,35.95
2018-07-14T09:08:45.763Z,36.17
2018-07-14T09:11:15.910Z,36.37
2018-07-14T09:13:45.261Z,36.43
2018-07-14T09:16:15.082Z,36.35
2018-07-14T09:18:44.560Z,36.39
2018-07-14T09:21:14.355Z,36.39
2018-07-14T09:23:45.495Z,36.15
2018-07-14T09:26:14.968Z,35.80
2018-07-14T09:28:44.654Z,35.62
2018-07-14T09:31:14.573Z,35.52
2018-07-14T09:33:44.352Z,35.53
2018-07-14T09:36:13.917Z,35.60
2018-07-14T09:38:44.054Z,35.45
2018-07-14T09:41:13.702Z,35.17
2018-07-14T09:43:43.672Z,34.89
2018-07-14T09:46:13.487Z,34.68
2018-07-14T09:48:43.560Z,34.69
2018-07-14T09:51:13.650Z,34.84
2018-07-14T09:53:44.159Z,35.13
2018-07-14T09:56:14.169Z,35.44
2018-07-14T09:58:44.148Z,35.59
2018-07-14T10:01:15.632Z,35.70
2018-07-14T10:03:46.358Z,35.82
2018-07-14T10:06:16.419Z,35.90
2018-07-14T10:08:46.188Z,35.83
2018-07-14T10:11:16.753Z,35.77
2018-07-14T10:13:46.090Z,35.75
2018-07-14T10:16:15.791Z,35.69
2018-07-14T10:18:45.768Z,35.71
2018-07-14T10:21:16.723Z,35.84
2018-07-14T10:23:49.761Z,35.86
2018-07-14T10:26:20.527Z,35.83
2018-07-14T10:28:51.125Z,35.84
2018-07-14T10:31:21.255Z,35.76
2018-07-14T10:33:50.873Z,35.56
2018-07-14T10:36:22.757Z,35.42
2018-07-14T10:38:53.225Z,35.48
2018-07-14T10:41:22.730Z,35.66
2018-07-14T10:43:54.605Z,35.65
2018-07-14T10:46:25.589Z,35.54
2018-07-14T10:48:55.634Z,35.46
2018-07-14T10:51:26.075Z,35.56
2018-07-14T10:53:55.794Z,35.84
2018-07-14T10:56:26.681Z,36.27
2018-07-14T10:58:56.781Z,36.69
2018-07-14T11:01:26.333Z,36.84
2018-07-14T11:03:55.946Z,36.90
2018-07-14T11:06:25.556Z,36.80
2018-07-14T11:08:56.406Z,36.84
2018-07-14T11:11:29.190Z,36.94
2018-07-14T11:13:58.618Z,36.84
2018-07-14T11:16:27.860Z,36.77
2018-07-14T11:18:57.298Z,36.68
2018-07-14T11:21:26.840Z,36.62
2018-07-14T11:23:56.288Z,36.64
2018-07-14T11:26:25.961Z,36.64
2018-07-14T11:28:56.829Z,36.45
2018-07-14T11:31:27.355Z,36.17
2018-07-14T11:33:57.066Z,35.90
2018-07-14T11:36:26.568Z,35.68
2018-07-14T11:39:01.727Z,35.42
2018-07-14T11:41:33.975Z,35.34
2018-07-14T11:44:03.982Z,35.27
2018-07-14T11:46:33.588Z,35.18
2018-07-14T11:49:03.289Z,35.15
2018-07-14T11:51:33.468Z,35.06
2018-07-14T11:54:03.449Z,35.08
2018-07-14T11:56:33.047Z,35.14
2018-07-14T11:59:03.385Z,35.14
2018-07-14T12:01:33.505Z,35.29
2018-07-14T12:04:03.436Z,35.43
2018-07-14T12:06:34.754Z,35.58
2018-07-14T12:09:05.123Z,35.63
2018-07-14T12:11:34.717Z,35.60
2018-07-14T12:14:04.205Z,35.57
2018-07-14T12:16:33.769Z,35.47
2018-07-14T12:19:04.431Z,35.31
2018-07-14T12:21:34.028Z,35.16
2018-07-14T12:24:04.316Z,35.03
2018-07-14T12:26:38.877Z,34.89
2018-07-14T12:29:09.339Z,34.75
2018-07-14T12:31:41.207Z,34.65
2018-07-14T12:34:11.218Z,34.53
2018-07-14T12:36:40.984Z,34.38
2018-07-14T12:39:12.212Z,34.33
2018-07-14T12:41:43.823Z,34.23
2018-07-14T12:44:13.693Z,34.05
2018-07-14T12:46:45.064Z,33.68
2018-07-14T12:49:16.514Z,33.32
2018-07-14T12:51:46.897Z,33.08
2018-07-14T12:54:17.884Z,32.96
2018-07-14T12:56:47.991Z,32.93
2018-07-14T12:59:18.268Z,33.03
2018-07-14T13:01:48.624Z,33.15
2018-07-14T13:04:19.204Z,33.24
2018-07-14T13:06:51.376Z,33.23
2018-07-14T13:09:21.710Z,33.23
2018-07-14T13:11:51.412Z,33.14
2018-07-14T13:14:21.323Z,33.10
2018-07-14T13:16:51.165Z,33.10
2018-07-14T13:19:20.718Z,33.09
2018-07-14T13:21:50.554Z,33.07
2018-07-14T13:24:21.195Z,33.03
2018-07-14T13:26:50.792Z,33.04
2018-07-14T13:29:21.517Z,33.10
2018-07-14T13:31:51.465Z,33.17
2018-07-14T13:34:21.803Z,33.19
2018-07-14T13:36:53.284Z,33.25
2018-07-14T13:39:22.760Z,33.31
2018-07-14T13:41:53.766Z,33.33
2018-07-14T13:44:23.136Z,33.34
2018-07-14T13:46:52.689Z,33.36
2018-07-14T13:49:22.185Z,33.38
2018-07-14T13:51:52.030Z,33.43
2018-07-14T13:54:21.479Z,33.48
2018-07-14T13:56:51.733Z,33.48
2018-07-14T13:59:21.177Z,33.49
2018-07-14T14:01:50.591Z,33.52
2018-07-14T14:04:20.009Z,33.61
2018-07-14T14:06:51.143Z,33.64
2018-07-14T14:09:20.304Z,33.65
2018-07-14T14:11:49.905Z,33.57
2018-07-14T14:14:19.929Z,33.51
2018-07-14T14:16:50.139Z,33.43
2018-07-14T14:19:19.697Z,33.34
2018-07-14T14:21:49.239Z,33.30
2018-07-14T14:24:18.565Z,33.31
2018-07-14T14:26:47.946Z,33.29
2018-07-14T14:29:18.465Z,33.21
2018-07-14T14:31:48.039Z,33.04
2018-07-14T14:34:17.260Z,32.86
2018-07-14T14:36:48.080Z,32.76
2018-07-14T14:39:17.462Z,32.76
2018-07-14T14:41:48.016Z,32.80
2018-07-14T14:44:17.432Z,32.84
2018-07-14T14:46:46.891Z,32.85
2018-07-14T14:49:16.322Z,32.83
2018-07-14T14:51:46.112Z,32.89
2018-07-14T14:54:15.603Z,32.88
2018-07-14T14:56:45.912Z,32.80
2018-07-14T14:59:15.249Z,32.69
2018-07-14T15:01:44.710Z,32.60
2018-07-14T15:04:14.288Z,32.96
2018-07-14T15:06:44.045Z,32.85
2018-07-14T15:09:15.100Z,32.68
2018-07-14T15:11:45.616Z,32.56
2018-07-14T15:14:15.401Z,32.47
2018-07-14T15:16:44.851Z,32.36
2018-07-14T15:19:14.889Z,32.29
2018-07-14T15:21:45.052Z,32.23
2018-07-14T15:24:16.615Z,32.21
2018-07-14T15:26:48.583Z,32.20
2018-07-14T15:29:17.879Z,32.46
2018-07-14T15:31:47.572Z,32.36
2018-07-14T15:34:17.066Z,32.24
2018-07-14T15:36:46.547Z,32.20
2018-07-14T15:39:16.090Z,32.25
2018-07-14T15:41:45.494Z,32.33
2018-07-14T15:44:15.927Z,32.35
2018-07-14T15:46:45.500Z,32.32
2018-07-14T15:49:14.944Z,32.30
2018-07-14T15:51:44.520Z,32.33
2018-07-14T15:54:13.998Z,32.28
2018-07-14T15:56:43.446Z,32.21
2018-07-14T15:59:13.451Z,32.42
2018-07-14T16:01:43.140Z,32.25
2018-07-14T16:04:12.663Z,32.09
2018-07-14T16:06:43.274Z,31.95
2018-07-14T16:09:13.520Z,31.85
2018-07-14T16:11:44.246Z,31.79
2018-07-14T16:14:15.767Z,31.72
2018-07-14T16:16:46.253Z,31.69
2018-07-14T16:19:17.084Z,31.65
2018-07-14T16:21:47.165Z,31.62
2018-07-14T16:24:16.877Z,31.63
2018-07-14T16:26:47.373Z,31.67
2018-07-14T16:29:16.933Z,31.72
2018-07-14T16:31:46.519Z,31.69
2018-07-14T16:34:16.226Z,31.66
2018-07-14T16:36:45.754Z,31.66
2018-07-14T16:39:16.716Z,31.65
2018-07-14T16:41:46.481Z,31.60
2018-07-14T16:44:18.005Z,31.57
2018-07-14T16:46:47.427Z,31.54
2018-07-14T16:49:17.306Z,31.50
2018-07-14T16:51:47.608Z,31.48
2018-07-14T16:54:16.745Z,31.47
2018-07-14T16:56:46.780Z,31.47
2018-07-14T16:59:16.037Z,31.44
2018-07-14T17:01:45.306Z,31.39
2018-07-14T17:04:14.957Z,31.34
2018-07-14T17:06:44.796Z,31.29
2018-07-14T17:09:14.381Z,31.22
2018-07-14T17:11:43.763Z,31.14
2018-07-14T17:14:13.086Z,31.04
2018-07-14T17:16:42.265Z,30.99
2018-07-14T17:19:12.162Z,30.95
2018-07-14T17:21:41.442Z,30.92
2018-07-14T17:24:10.788Z,30.89
2018-07-14T17:26:40.078Z,30.89
2018-07-14T17:29:09.288Z,30.89
2018-07-14T17:31:38.490Z,30.89
2018-07-14T17:34:07.712Z,30.87
2018-07-14T17:36:36.888Z,30.85
2018-07-14T17:39:07.934Z,30.81
2018-07-14T17:41:37.314Z,30.77
2018-07-14T17:44:06.580Z,30.72
2018-07-14T17:46:35.711Z,30.66
2018-07-14T17:49:05.376Z,30.60
2018-07-14T17:51:35.987Z,30.53
2018-07-14T17:54:05.064Z,30.42
2018-07-14T17:56:34.233Z,30.33
2018-07-14T17:59:03.337Z,30.25
2018-07-14T18:01:32.483Z,30.15
2018-07-14T18:04:01.665Z,30.06
2018-07-14T18:06:30.818Z,29.99
2018-07-14T18:09:00.060Z,29.91
2018-07-14T18:11:29.198Z,29.81
2018-07-14T18:13:58.442Z,29.77
2018-07-14T18:16:27.667Z,29.74
2018-07-14T18:18:56.859Z,29.69
2018-07-14T18:21:26.441Z,29.68
2018-07-14T18:23:56.089Z,29.65
2018-07-14T18:26:25.627Z,29.61
2018-07-14T18:28:54.876Z,29.56
2018-07-14T18:31:23.980Z,29.50
2018-07-14T18:33:53.707Z,29.41
2018-07-14T18:36:22.950Z,29.32
2018-07-14T18:38:52.091Z,29.26
2018-07-14T18:41:21.221Z,29.18
2018-07-14T18:43:50.549Z,29.11
2018-07-14T18:46:19.654Z,29.04
2018-07-14T18:48:49.005Z,28.97
2018-07-14T18:51:18.165Z,28.86
2018-07-14T18:53:47.504Z,28.79
2018-07-14T18:56:17.503Z,28.70
2018-07-14T18:58:46.613Z,28.63
2018-07-14T19:01:15.688Z,28.53
2018-07-14T19:03:44.908Z,28.44
2018-07-14T19:06:14.187Z,28.34
2018-07-14T19:08:43.477Z,28.23
2018-07-14T19:11:12.686Z,28.17
2018-07-14T19:13:44.436Z,28.09
2018-07-14T19:16:14.463Z,27.99
2018-07-14T19:18:43.975Z,27.92
2018-07-14T19:21:13.422Z,27.84
2018-07-14T19:23:44.034Z,27.76
2018-07-14T19:26:14.551Z,27.67
2018-07-14T19:28:44.814Z,27.58
2018-07-14T19:31:14.950Z,27.50
2018-07-14T19:33:46.805Z,27.74
2018-07-14T19:36:16.429Z,27.60
2018-07-14T19:38:46.507Z,27.44
2018-07-14T19:41:16.066Z,27.32
2018-07-14T19:43:45.625Z,27.21
2018-07-14T19:46:15.058Z,27.10
2018-07-14T19:48:45.424Z,26.99
2018-07-14T19:51:15.448Z,26.88
2018-07-14T19:53:45.828Z,26.78
2018-07-14T19:56:15.602Z,26.69
2018-07-14T19:58:46.616Z,26.59
2018-07-14T20:01:17.815Z,26.49
2018-07-14T20:03:47.960Z,26.42
2018-07-14T20:06:17.385Z,26.35
2018-07-14T20:08:46.708Z,26.27
2018-07-14T20:11:16.191Z,26.19
2018-07-14T20:13:46.454Z,26.10
2018-07-14T20:16:15.868Z,26.04
2018-07-14T20:18:45.757Z,25.93
2018-07-14T20:21:15.861Z,25.86
2018-07-14T20:23:45.948Z,25.76
2018-07-14T20:26:15.995Z,25.67
2018-07-14T20:28:45.908Z,25.60
2018-07-14T20:31:15.835Z,25.55
2018-07-14T20:33:45.419Z,25.50
2018-07-14T20:36:15.307Z,25.44
2018-07-14T20:38:44.946Z,25.36
2018-07-14T20:41:14.681Z,25.29
2018-07-14T20:43:44.789Z,25.24
2018-07-14T20:46:16.394Z,25.18
2018-07-14T20:48:48.522Z,25.12
2018-07-14T20:51:18.401Z,25.08
2018-07-14T20:53:48.772Z,25.02
2018-07-14T20:56:18.014Z,24.96
2018-07-14T20:58:47.590Z,24.91
2018-07-14T21:01:16.939Z,24.89
2018-07-14T21:03:46.882Z,24.84
2018-07-14T21:06:16.391Z,24.79
2018-07-14T21:08:48.111Z,24.75
2018-07-14T21:11:17.435Z,24.70
2018-07-14T21:13:46.621Z,25.09
2018-07-14T21:16:16.138Z,25.05
2018-07-14T21:18:46.352Z,24.90
2018-07-14T21:21:18.094Z,24.75
2018-07-14T21:23:48.588Z,24.63
2018-07-14T21:26:20.313Z,24.55
2018-07-14T21:28:51.214Z,24.47
2018-07-14T21:31:22.815Z,24.40
2018-07-14T21:33:55.867Z,24.36
2018-07-14T21:36:25.934Z,24.31
2018-07-14T21:38:57.519Z,24.27
2018-07-14T21:41:29.000Z,24.23
2018-07-14T21:43:59.775Z,24.17
2018-07-14T21:46:32.611Z,24.40
2018-07-14T21:49:07.460Z,24.35
2018-07-14T21:51:37.758Z,24.24
2018-07-14T21:54:08.263Z,24.17
2018-07-14T21:56:37.786Z,24.11
2018-07-14T21:59:10.200Z,24.07
2018-07-14T22:01:48.373Z,24.03
2018-07-14T22:04:18.229Z,23.97
2018-07-14T22:06:51.202Z,23.92
2018-07-14T22:09:20.455Z,23.86
2018-07-14T22:11:51.157Z,23.81
2018-07-14T22:14:22.467Z,23.76
2018-07-14T22:16:51.751Z,23.72
2018-07-14T22:19:21.116Z,23.69
2018-07-14T22:21:50.928Z,23.65
2018-07-14T22:24:22.815Z,23.61
2018-07-14T22:26:52.106Z,23.56
2018-07-14T22:29:22.095Z,23.50
2018-07-14T22:31:51.230Z,23.44
2018-07-14T22:34:20.573Z,23.36
2018-07-14T22:36:50.151Z,23.32
2018-07-14T22:39:20.814Z,23.23
2018-07-14T22:41:50.308Z,23.18
2018-07-14T22:44:20.567Z,23.11
2018-07-14T22:46:50.086Z,23.05
2018-07-14T22:49:19.256Z,23.00
2018-07-14T22:51:50.014Z,22.94
2018-07-14T22:54:19.160Z,22.88
2018-07-14T22:56:48.732Z,22.82
2018-07-14T22:59:18.173Z,22.76
2018-07-14T23:01:47.262Z,22.68
2018-07-14T23:04:17.136Z,22.60
2018-07-14T23:06:47.250Z,22.55
2018-07-14T23:09:17.633Z,22.50
2018-07-14T23:11:48.242Z,22.48
2018-07-14T23:14:17.725Z,22.45
2018-07-14T23:16:46.984Z,22.40
2018-07-14T23:19:17.599Z,22.33
2018-07-14T23:21:46.807Z,22.26
2018-07-14T23:24:16.346Z,22.19
2018-07-14T23:26:45.849Z,22.17
2018-07-14T23:29:15.012Z,22.13
2018-07-14T23:31:44.272Z,22.10
2018-07-14T23:34:14.731Z,22.07
2018-07-14T23:36:44.741Z,22.02
2018-07-14T23:39:14.562Z,21.98
2018-07-14T23:41:43.977Z,21.94
2018-07-14T23:44:14.188Z,21.90
2018-07-14T23:46:43.977Z,21.85
2018-07-14T23:49:14.738Z,21.84
2018-07-14T23:51:44.412Z,21.79
2018-07-14T23:54:13.604Z,21.73
2018-07-14T23:56:44.174Z,21.65
2018-07-14T23:59:14.064Z,21.57
